Airfield :
LOGIN :

Register | Disclaimer

   EN    FR    IT 

 










Legend :    VFR   Marginal VFR   IFR   Intensive IFR   Very Intensive IFR
Visi :
Ceiling :
>= 8 km
>= 3000ft
5 to 8 km
1000 to 3000 ft
1500m to 5 km
500 to 1000 ft
800 to 1500m
200 to 500 ft
< 800m
< 200 ft
Symbols :   Thunderstorms  Fog  Heavy snow  Heavy precipitations  Wind > 20 kt
SIGMETs :     Misc.  Thunderstorms  Icing  Turbulence  Mountain Waves  Volcanic Ashes






- Airport Elevation : 80 ft
- IATA code : LPL


EGGP - Liverpool John Lennon

CURRENT METAR :
  • 131950Z VRB03KT CAVOK 09/08 Q1006

EXPIRED METARs :
  • 131920Z VRB01KT CAVOK 10/09 Q1005
  • 131850Z 26009KT CAVOK 10/09 Q1005
  • 131820Z 27012KT 9999 FEW030 11/10 Q1004
  • 131750Z 26014KT 9999 FEW030 11/09 Q1003
  • 131720Z 27017KT 9999 SCT030 12/10 Q1003

TAF TAF EGGP
Valid from the 13 at 18:00 until the 14 at 18:00 UTC


131700Z 1318/1418 26017KT 9999 FEW020
BECMG 1318/1321 19005KT
PROB30
TEMPO 1318/1319 27020G30KT
PROB30 1323/1409 3000 BR
BECMG 1409/1412 13010KT
PROB30
TEMPO 1413/1418 BKN014
BECMG 1415/1418 06010KT
ATIS : +44 151 907 2000 (option 5 or ext 5150)
Met : +44 871 750 5150



MET'MAP, your aeronautical weather chart ! - Copyright ORBIFLY December 2007 - Disclaimer

ORBIFLY MET'MAP TEAM :

Programming & Development : Alexandra Zaïnal
Concept & Development : Baudouin d'Aumeries
Co-Development & Prog : Marc-Olivier Méhu
Technical & hardware support : Manuel Goepfert

Contact : metmap@orbifly.com




SOURCES & CREDITS :

   NOAA